Time;durP1;ratioP1;P1;durP2;ratioP2;P2;SDS_P1;SDS_P2;PMS_P1;PMS_P2;Temp;Humidity;BMP_temperature;BMP_pressure;BME280_temperature;BME280_humidity;BME280_pressure;Samples;Min_cycle;Max_cycle;Signal;HPM_P1;HPM_P2
2021/01/05 00:01:12;;;;;;;10.80;8.27;;;2.20;99.90;;;;;;4162603;28;20029;-80
2021/01/05 00:03:13;;;;;;;10.38;7.88;;;2.20;99.90;;;;;;4162278;28;20045;-79
2021/01/05 00:05:14;;;;;;;9.35;8.18;;;2.30;99.90;;;;;;4180019;28;20061;-80
2021/01/05 00:07:15;;;;;;;11.25;9.13;;;2.30;99.90;;;;;;4162322;28;20044;-79
2021/01/05 00:09:16;;;;;;;10.48;8.20;;;2.20;99.90;;;;;;4179873;28;20017;-79
2021/01/05 00:11:16;;;;;;;9.75;8.55;;;2.20;99.90;;;;;;4179726;28;20098;-79
2021/01/05 00:13:17;;;;;;;10.95;9.13;;;2.30;99.90;;;;;;4162350;28;20179;-80
2021/01/05 00:15:18;;;;;;;12.65;9.15;;;2.30;99.90;;;;;;4163737;28;20052;-79
2021/01/05 00:17:21;;;;;;;12.90;8.88;;;2.30;99.90;;;;;;4163442;28;20042;-79
2021/01/05 00:19:23;;;;;;;10.75;8.63;;;2.30;99.90;;;;;;4181301;28;20025;-79
2021/01/05 00:21:25;;;;;;;10.77;8.40;;;2.30;99.90;;;;;;4163578;28;20484;-79
2021/01/05 00:23:26;;;;;;;10.82;8.20;;;2.30;99.90;;;;;;4163297;28;20029;-79
2021/01/05 00:25:28;;;;;;;10.98;8.65;;;2.30;99.90;;;;;;4163089;28;20032;-79
2021/01/05 00:27:29;;;;;;;11.70;9.40;;;2.30;99.90;;;;;;4180587;28;20029;-79
2021/01/05 00:29:30;;;;;;;10.70;9.25;;;2.30;99.90;;;;;;4163420;28;20037;-79
2021/01/05 00:31:31;;;;;;;13.25;9.52;;;2.30;99.90;;;;;;4162363;28;20085;-79
2021/01/05 00:33:34;;;;;;;11.52;8.75;;;2.30;99.90;;;;;;4157408;28;20036;-79
2021/01/05 00:35:37;;;;;;;11.75;9.02;;;2.30;99.90;;;;;;4180863;28;20559;-79
2021/01/05 00:37:38;;;;;;;11.27;9.25;;;2.30;99.90;;;;;;4181026;28;20033;-79
2021/01/05 00:39:39;;;;;;;12.57;9.52;;;2.30;99.90;;;;;;4158496;28;20062;-79
2021/01/05 00:41:39;;;;;;;10.75;9.20;;;2.30;99.90;;;;;;4177490;28;20144;-79
2021/01/05 00:43:40;;;;;;;10.43;8.60;;;2.30;99.90;;;;;;4180614;28;20392;-80
2021/01/05 00:45:41;;;;;;;10.93;9.15;;;2.30;99.90;;;;;;4180056;28;20036;-80
2021/01/05 00:47:42;;;;;;;11.05;8.93;;;2.30;99.90;;;;;;4180082;28;20486;-80
2021/01/05 00:49:42;;;;;;;11.10;8.98;;;2.30;99.90;;;;;;4180397;28;20040;-80
2021/01/05 00:51:43;;;;;;;11.50;9.02;;;2.30;99.90;;;;;;4179394;28;20656;-80
2021/01/05 00:53:44;;;;;;;13.00;10.40;;;2.30;99.90;;;;;;4179227;28;20369;-79
2021/01/05 00:55:44;;;;;;;13.05;9.93;;;2.30;99.90;;;;;;4161329;28;20497;-79
2021/01/05 00:57:45;;;;;;;13.02;10.48;;;2.30;99.90;;;;;;4179066;28;20029;-80
2021/01/05 00:59:47;;;;;;;11.50;9.38;;;2.30;99.90;;;;;;4179003;28;20082;-79
2021/01/05 01:01:47;;;;;;;15.38;10.15;;;2.30;99.90;;;;;;4179154;28;20029;-79
2021/01/05 01:03:52;;;;;;;12.55;10.15;;;2.30;99.90;;;;;;4179022;28;20063;-79
2021/01/05 01:05:52;;;;;;;12.57;9.98;;;2.30;99.90;;;;;;4169017;28;20029;-79
2021/01/05 01:07:53;;;;;;;12.32;9.38;;;2.30;99.90;;;;;;4176884;28;20440;-79
2021/01/05 01:09:53;;;;;;;12.98;9.98;;;2.30;99.90;;;;;;4160360;28;20034;-79
2021/01/05 01:12:05;;;;;;;11.82;9.35;;;2.30;99.90;;;;;;4171886;28;20114;-79
2021/01/05 01:14:06;;;;;;;11.48;9.23;;;2.30;99.90;;;;;;4169848;28;20055;-79
2021/01/05 01:16:07;;;;;;;15.93;10.45;;;2.30;99.90;;;;;;4178367;28;20025;-78
2021/01/05 01:18:08;;;;;;;13.55;10.43;;;2.30;99.90;;;;;;4178724;28;20041;-79
2021/01/05 01:20:10;;;;;;;13.57;10.00;;;2.30;99.90;;;;;;4178369;28;20062;-79
2021/01/05 01:22:10;;;;;;;12.13;9.65;;;2.30;99.90;;;;;;4178353;28;20087;-79
2021/01/05 01:24:11;;;;;;;13.88;10.48;;;2.30;99.90;;;;;;4178045;28;20076;-79
2021/01/05 01:26:12;;;;;;;12.05;8.98;;;2.30;99.90;;;;;;4177841;28;20518;-79
2021/01/05 01:28:13;;;;;;;13.55;10.68;;;2.30;99.90;;;;;;4178558;28;20112;-80
2021/01/05 01:30:14;;;;;;;11.48;9.57;;;2.20;99.90;;;;;;4178860;28;20028;-80
2021/01/05 01:32:16;;;;;;;12.70;9.82;;;2.30;99.90;;;;;;4159186;28;20039;-80
2021/01/05 01:34:18;;;;;;;14.60;10.18;;;2.30;99.90;;;;;;4177801;28;20047;-79
2021/01/05 01:36:19;;;;;;;13.02;10.05;;;2.30;99.90;;;;;;4161037;28;20033;-79
2021/01/05 01:38:19;;;;;;;12.18;9.52;;;2.30;99.90;;;;;;4178344;28;20552;-79
2021/01/05 01:40:37;;;;;;;12.07;9.68;;;2.30;99.90;;;;;;4160738;28;20496;-79
2021/01/05 01:42:38;;;;;;;13.23;10.27;;;2.30;99.90;;;;;;4160797;28;20120;-79
2021/01/05 01:44:41;;;;;;;11.27;9.05;;;2.30;99.90;;;;;;4160773;28;20029;-79
2021/01/05 01:46:42;;;;;;;11.40;9.15;;;2.30;99.90;;;;;;4160442;28;20540;-80
2021/01/05 01:48:43;;;;;;;12.82;10.35;;;2.30;99.90;;;;;;4178329;28;20094;-80
2021/01/05 01:50:43;;;;;;;10.88;9.13;;;2.30;99.90;;;;;;4178427;28;20063;-80
2021/01/05 01:53:02;;;;;;;14.10;8.82;;;2.30;99.90;;;;;;4178035;28;20484;-80
2021/01/05 01:55:52;;;;;;;10.02;8.93;;;2.30;99.90;;;;;;4177863;28;20021;-80
2021/01/05 01:58:17;;;;;;;12.25;9.07;;;2.30;99.90;;;;;;4130939;28;20027;-79
2021/01/05 02:00:20;;;;;;;;;;;2.30;99.90;;;;;;4177623;28;20029;-79
2021/01/05 02:02:50;;;;;;;11.45;9.10;;;2.30;99.90;;;;;;4166499;28;19978;-79
2021/01/05 02:05:14;;;;;;;12.48;8.52;;;2.30;99.90;;;;;;4179859;28;20029;-80
2021/01/05 02:07:39;;;;;;;10.77;9.25;;;2.30;99.90;;;;;;4179084;28;20083;-79
2021/01/05 02:10:07;;;;;;;11.38;9.32;;;2.30;99.90;;;;;;4179639;28;20112;-79
2021/01/05 02:12:19;;;;;;;10.73;8.80;;;2.30;99.90;;;;;;4179305;28;20029;-78
2021/01/05 02:14:28;;;;;;;13.15;8.30;;;2.30;99.90;;;;;;4161980;28;20033;-79
2021/01/05 02:16:37;;;;;;;11.02;9.05;;;2.30;99.90;;;;;;4162016;28;20512;-79
2021/01/05 02:18:54;;;;;;;13.18;9.68;;;2.30;99.90;;;;;;4179727;28;20033;-79
2021/01/05 02:20:59;;;;;;;12.00;9.00;;;2.30;99.90;;;;;;4179328;28;20047;-79
2021/01/05 02:23:09;;;;;;;13.57;9.40;;;2.30;99.90;;;;;;4179663;28;20087;-80
2021/01/05 02:25:33;;;;;;;10.57;8.85;;;2.30;99.90;;;;;;4179438;28;20017;-79
2021/01/05 02:27:43;;;;;;;11.80;8.80;;;2.30;99.90;;;;;;4179079;28;20028;-79
2021/01/05 02:29:54;;;;;;;12.32;9.15;;;2.30;99.90;;;;;;4179443;28;20028;-79
2021/01/05 02:32:33;;;;;;;13.80;9.85;;;2.30;99.90;;;;;;4178309;28;20060;-79
2021/01/05 02:34:58;;;;;;;13.18;10.23;;;2.30;99.90;;;;;;4168350;28;20044;-80
2021/01/05 02:37:37;;;;;;;12.35;9.13;;;2.30;99.90;;;;;;4161775;28;20117;-80
2021/01/05 02:40:21;;;;;;;12.70;9.77;;;2.30;99.90;;;;;;4113034;28;20206;-79
2021/01/05 02:42:40;;;;;;;11.85;9.13;;;2.30;99.90;;;;;;4151821;28;20052;-80
2021/01/05 02:45:15;;;;;;;11.30;9.32;;;2.30;99.90;;;;;;4161185;28;20500;-80
2021/01/05 02:47:53;;;;;;;12.27;9.82;;;2.30;99.90;;;;;;4148560;28;20075;-80
2021/01/05 02:50:12;;;;;;;13.18;9.43;;;2.30;99.90;;;;;;4163290;28;20040;-80
2021/01/05 02:52:31;;;;;;;13.35;9.73;;;2.30;99.90;;;;;;4182426;28;20041;-80
2021/01/05 02:54:43;;;;;;;11.90;9.38;;;2.30;99.90;;;;;;4182817;28;20392;-80
2021/01/05 02:56:46;;;;;;;11.15;8.63;;;2.30;99.90;;;;;;4165201;28;20396;-81
2021/01/05 02:59:01;;;;;;;12.25;9.85;;;2.30;99.90;;;;;;4164946;28;20026;-80
2021/01/05 03:01:23;;;;;;;13.25;9.27;;;2.30;99.90;;;;;;4182103;28;20025;-79
2021/01/05 03:03:44;;;;;;;12.40;9.82;;;2.30;99.90;;;;;;4164767;28;20037;-80
2021/01/05 03:06:07;;;;;;;12.65;10.07;;;2.30;99.90;;;;;;4171516;28;20021;-80
2021/01/05 03:08:08;;;;;;;13.07;9.90;;;2.30;99.90;;;;;;4157422;28;20027;-79
2021/01/05 03:10:40;;;;;;;13.88;10.63;;;2.30;99.90;;;;;;4164537;28;20288;-79
2021/01/05 03:13:08;;;;;;;12.27;9.60;;;2.30;99.90;;;;;;4173864;28;20056;-79
2021/01/05 03:15:12;;;;;;;12.43;10.18;;;2.30;99.90;;;;;;4182012;28;20028;-79
2021/01/05 03:17:36;;;;;;;12.82;9.20;;;2.30;99.90;;;;;;4182448;28;20439;-79
2021/01/05 03:20:10;;;;;;;11.73;9.18;;;2.30;99.90;;;;;;4182383;28;20025;-80
2021/01/05 03:22:14;;;;;;;11.97;9.43;;;2.30;99.90;;;;;;4181880;28;20116;-79
2021/01/05 03:24:16;;;;;;;16.08;9.73;;;2.30;99.90;;;;;;4181975;28;20024;-80
2021/01/05 03:26:21;;;;;;;13.15;10.70;;;2.30;99.90;;;;;;4164641;28;20060;-80
2021/01/05 03:28:26;;;;;;;13.68;10.23;;;2.30;99.90;;;;;;4182205;28;20093;-79
2021/01/05 03:30:38;;;;;;;13.27;9.32;;;2.30;99.90;;;;;;4182377;28;20484;-79
2021/01/05 03:32:39;;;;;;;13.45;9.68;;;2.30;99.90;;;;;;4164514;28;20025;-79
2021/01/05 03:34:39;;;;;;;12.35;9.02;;;2.30;99.90;;;;;;4164134;28;20037;-79
2021/01/05 03:36:40;;;;;;;13.23;10.13;;;2.30;99.90;;;;;;4182013;28;20033;-79
2021/01/05 03:38:41;;;;;;;12.35;9.43;;;2.30;99.90;;;;;;4182085;28;20160;-79
2021/01/05 03:40:41;;;;;;;12.80;9.82;;;2.30;99.90;;;;;;4181774;28;20384;-79
2021/01/05 03:42:42;;;;;;;12.52;9.25;;;2.30;99.90;;;;;;4164076;28;20489;-80
2021/01/05 03:44:42;;;;;;;13.05;9.25;;;2.30;99.90;;;;;;4164162;28;20030;-80
2021/01/05 03:46:44;;;;;;;12.23;9.15;;;2.30;99.90;;;;;;4181923;28;20025;-80
2021/01/05 03:48:44;;;;;;;14.55;11.05;;;2.30;99.90;;;;;;4182085;28;20033;-80
2021/01/05 03:50:45;;;;;;;12.57;10.05;;;2.30;99.90;;;;;;4181842;28;20032;-80
2021/01/05 03:52:46;;;;;;;12.52;10.07;;;2.30;99.90;;;;;;4163958;28;20037;-80
2021/01/05 03:54:47;;;;;;;13.90;10.18;;;2.30;99.90;;;;;;4181625;28;20035;-80
2021/01/05 03:56:48;;;;;;;10.77;9.25;;;2.30;99.90;;;;;;4181693;28;20388;-79
2021/01/05 03:58:49;;;;;;;12.93;10.38;;;2.30;99.90;;;;;;4181790;28;20033;-79
2021/01/05 04:00:51;;;;;;;15.43;10.43;;;2.30;99.90;;;;;;4181480;28;20021;-80
2021/01/05 04:02:58;;;;;;;13.48;10.30;;;2.30;99.90;;;;;;4181887;28;20025;-79
2021/01/05 04:04:59;;;;;;;17.73;11.20;;;2.30;99.90;;;;;;4163791;28;20025;-79
2021/01/05 04:06:59;;;;;;;14.43;10.75;;;2.30;99.90;;;;;;4181386;28;20033;-80
2021/01/05 04:09:00;;;;;;;16.38;11.10;;;2.30;99.90;;;;;;4164202;28;20446;-80
2021/01/05 04:11:00;;;;;;;15.57;11.05;;;2.30;99.90;;;;;;4181539;28;20032;-80
2021/01/05 04:13:01;;;;;;;15.02;11.02;;;2.30;99.90;;;;;;4181262;28;20357;-78
2021/01/05 04:15:04;;;;;;;17.83;12.02;;;2.30;99.90;;;;;;4181476;28;20013;-79
2021/01/05 04:17:05;;;;;;;16.08;10.15;;;2.30;99.90;;;;;;4181442;28;20017;-79
2021/01/05 04:19:05;;;;;;;17.55;11.65;;;2.30;99.90;;;;;;4163416;28;20380;-79
2021/01/05 04:21:06;;;;;;;18.00;10.73;;;2.30;99.90;;;;;;4163542;28;20025;-79
2021/01/05 04:23:07;;;;;;;14.65;10.18;;;2.30;99.90;;;;;;4181261;28;20025;-79
2021/01/05 04:25:08;;;;;;;17.48;11.38;;;2.30;99.90;;;;;;4181537;28;20021;-79
2021/01/05 04:27:09;;;;;;;17.33;11.30;;;2.20;99.90;;;;;;4181435;28;20021;-79
2021/01/05 04:29:10;;;;;;;17.10;12.57;;;2.20;99.90;;;;;;4163770;28;20136;-79
2021/01/05 04:31:11;;;;;;;17.00;11.02;;;2.20;99.90;;;;;;4180842;28;20132;-79
2021/01/05 04:33:12;;;;;;;17.35;11.93;;;2.20;99.90;;;;;;4161449;28;20075;-79
2021/01/05 04:35:13;;;;;;;18.85;12.13;;;2.20;99.90;;;;;;4181411;28;20444;-78
2021/01/05 04:37:14;;;;;;;18.60;12.63;;;2.20;99.90;;;;;;4181050;28;20025;-79
2021/01/05 04:39:15;;;;;;;19.40;11.90;;;2.20;99.90;;;;;;4180149;28;20033;-78
2021/01/05 04:41:17;;;;;;;21.40;13.18;;;2.20;99.90;;;;;;4179490;28;20491;-79
2021/01/05 04:43:39;;;;;;;21.75;13.55;;;2.20;99.90;;;;;;4161606;28;20080;-79
2021/01/05 04:45:57;;;;;;;20.90;12.57;;;2.20;99.90;;;;;;4179513;28;20032;-79
2021/01/05 04:48:32;;;;;;;22.05;13.95;;;2.20;99.90;;;;;;4179399;28;20556;-79
2021/01/05 04:50:42;;;;;;;20.17;11.93;;;2.20;99.90;;;;;;4179028;28;20025;-79
2021/01/05 04:52:55;;;;;;;19.25;12.48;;;2.20;99.90;;;;;;4179196;28;20094;-78
2021/01/05 04:55:17;;;;;;;21.20;13.05;;;2.20;99.90;;;;;;4179111;28;20535;-79
2021/01/05 04:57:17;;;;;;;21.70;13.27;;;2.20;99.90;;;;;;4178936;28;20039;-79
2021/01/05 04:59:24;;;;;;;20.27;11.85;;;2.20;99.90;;;;;;4179037;28;20341;-78
2021/01/05 05:01:34;;;;;;;19.50;12.95;;;2.20;99.90;;;;;;4161486;28;20112;-79
2021/01/05 05:03:38;;;;;;;22.42;14.35;;;2.20;99.90;;;;;;4179416;28;20025;-80
2021/01/05 05:06:00;;;;;;;;;;;2.20;99.90;;;;;;4163157;28;20037;-79
2021/01/05 05:08:38;;;;;;;21.35;12.85;;;2.20;99.90;;;;;;4176065;28;19916;-80
2021/01/05 05:10:48;;;;;;;19.33;12.57;;;2.20;99.90;;;;;;4174025;28;20048;-80
2021/01/05 05:12:55;;;;;;;21.75;13.65;;;2.30;99.90;;;;;;4160282;28;20097;-80
2021/01/05 05:15:28;;;;;;;21.95;14.38;;;2.30;99.90;;;;;;4178629;28;20025;-79
2021/01/05 05:18:07;;;;;;;23.40;14.20;;;2.20;99.90;;;;;;4148153;28;20032;-79
2021/01/05 05:20:33;;;;;;;25.02;14.85;;;2.20;99.90;;;;;;4178235;28;20540;-79
2021/01/05 05:22:49;;;;;;;24.00;14.55;;;2.30;99.90;;;;;;4171329;28;20036;-80
2021/01/05 05:25:11;;;;;;;24.73;14.48;;;2.30;99.90;;;;;;4155355;28;20102;-80
2021/01/05 05:27:29;;;;;;;21.10;12.40;;;2.30;99.90;;;;;;4160827;28;20033;-80
2021/01/05 05:29:29;;;;;;;22.73;14.48;;;2.30;99.90;;;;;;4172793;28;20044;-80
2021/01/05 05:31:32;;;;;;;26.15;14.38;;;2.30;99.90;;;;;;4161994;28;20380;-80
2021/01/05 05:33:37;;;;;;;21.05;13.05;;;2.30;99.90;;;;;;4179893;28;20026;-80
2021/01/05 05:35:44;;;;;;;23.08;15.50;;;2.30;99.90;;;;;;4179170;28;20430;-80
2021/01/05 05:38:01;;;;;;;23.35;14.75;;;2.30;99.90;;;;;;4169557;28;20701;-80
2021/01/05 05:40:18;;;;;;;22.75;15.70;;;2.30;99.90;;;;;;4178712;28;20597;-80
2021/01/05 05:42:48;;;;;;;21.50;14.55;;;2.30;99.90;;;;;;4160446;28;20029;-79
2021/01/05 05:44:57;;;;;;;21.70;13.73;;;2.30;99.90;;;;;;4178488;28;20033;-79
2021/01/05 05:47:32;;;;;;;23.73;16.88;;;2.30;99.90;;;;;;4179837;28;20493;-80
2021/01/05 05:49:35;;;;;;;;;;;2.30;99.90;;;;;;4180072;28;20384;-79
2021/01/05 05:51:41;;;;;;;21.92;14.15;;;2.30;99.90;;;;;;4179701;28;19917;-79
2021/01/05 05:53:49;;;;;;;20.80;13.80;;;2.30;99.90;;;;;;4180084;28;20435;-80
2021/01/05 05:55:59;;;;;;;21.50;13.18;;;2.30;99.90;;;;;;4179904;28;20025;-79
2021/01/05 05:58:02;;;;;;;22.55;15.30;;;2.30;99.90;;;;;;4160850;28;20590;-80
2021/01/05 06:00:23;;;;;;;26.88;16.00;;;2.30;99.90;;;;;;4178183;28;20436;-79
2021/01/05 06:02:24;;;;;;;21.00;14.07;;;2.30;99.90;;;;;;4179726;28;20060;-80
2021/01/05 06:04:24;;;;;;;23.27;14.43;;;2.30;99.90;;;;;;4179908;28;20033;-79
2021/01/05 06:06:26;;;;;;;24.13;15.52;;;2.30;99.90;;;;;;4179888;28;20111;-79
2021/01/05 06:08:27;;;;;;;23.13;14.98;;;2.30;99.90;;;;;;4160919;28;20036;-78
2021/01/05 06:10:28;;;;;;;23.25;14.55;;;2.40;99.90;;;;;;4160779;28;20033;-79
2021/01/05 06:12:28;;;;;;;25.38;15.73;;;2.40;99.90;;;;;;4160905;28;20088;-79
2021/01/05 06:14:30;;;;;;;20.23;13.65;;;2.40;99.90;;;;;;4144464;28;20124;-79
2021/01/05 06:16:32;;;;;;;22.67;13.57;;;2.40;99.90;;;;;;4161501;28;20033;-79
2021/01/05 06:18:33;;;;;;;19.98;14.27;;;2.40;99.90;;;;;;4179692;28;20036;-80
2021/01/05 06:20:34;;;;;;;25.67;13.95;;;2.40;99.90;;;;;;4160677;28;20528;-80
2021/01/05 06:22:34;;;;;;;22.63;14.52;;;2.40;99.90;;;;;;4160458;28;20037;-79
2021/01/05 06:24:35;;;;;;;21.48;14.25;;;2.40;99.90;;;;;;4160386;28;20055;-79
2021/01/05 06:26:35;;;;;;;19.60;12.98;;;2.40;99.90;;;;;;4177963;28;20035;-79
2021/01/05 06:28:36;;;;;;;21.00;14.00;;;2.40;99.90;;;;;;4178024;28;20079;-79
2021/01/05 06:30:36;;;;;;;22.50;15.25;;;2.40;99.90;;;;;;4177748;28;20741;-79
2021/01/05 06:32:38;;;;;;;22.10;13.93;;;2.40;99.90;;;;;;4179474;28;20033;-79
2021/01/05 06:34:38;;;;;;;19.35;13.68;;;2.40;99.90;;;;;;4171558;28;20063;-79
2021/01/05 06:36:39;;;;;;;22.58;14.75;;;2.40;99.90;;;;;;4177747;28;20036;-79
2021/01/05 06:38:40;;;;;;;20.42;14.70;;;2.40;99.90;;;;;;4177895;28;20025;-79
2021/01/05 06:40:40;;;;;;;21.23;13.75;;;2.40;99.90;;;;;;4169415;28;20480;-78
2021/01/05 06:42:41;;;;;;;21.38;14.20;;;2.40;99.90;;;;;;4159850;28;20045;-79
2021/01/05 06:44:43;;;;;;;21.70;13.90;;;2.40;99.90;;;;;;4166607;28;20033;-79
2021/01/05 06:46:47;;;;;;;20.08;14.15;;;2.40;99.90;;;;;;4146215;28;20057;-79
2021/01/05 06:48:47;;;;;;;20.98;14.20;;;2.40;99.90;;;;;;4162388;28;20500;-79
2021/01/05 06:50:49;;;;;;;23.20;15.52;;;2.40;99.90;;;;;;4146714;28;20030;-79
2021/01/05 06:52:50;;;;;;;19.58;13.63;;;2.40;99.90;;;;;;4164234;28;20053;-78
2021/01/05 06:54:51;;;;;;;19.77;13.13;;;2.40;99.90;;;;;;4146561;28;20053;-79
2021/01/05 06:56:54;;;;;;;22.60;14.98;;;2.40;99.90;;;;;;4172709;28;20401;-78
2021/01/05 06:58:55;;;;;;;21.95;14.80;;;2.40;99.90;;;;;;4164834;28;20088;-79
2021/01/05 07:00:56;;;;;;;22.85;14.20;;;2.40;99.90;;;;;;4170857;28;20381;-80
2021/01/05 07:02:57;;;;;;;20.17;13.98;;;2.40;99.90;;;;;;4164286;28;20048;-80
2021/01/05 07:04:58;;;;;;;20.60;12.82;;;2.40;99.90;;;;;;4174656;28;20487;-79
2021/01/05 07:07:00;;;;;;;18.88;13.95;;;2.40;99.90;;;;;;4177369;28;20040;-80
2021/01/05 07:09:00;;;;;;;20.77;13.68;;;2.40;99.90;;;;;;4178736;28;20048;-79
2021/01/05 07:11:01;;;;;;;22.00;14.15;;;2.40;99.90;;;;;;4179310;28;20033;-78
2021/01/05 07:13:02;;;;;;;20.35;13.50;;;2.40;99.90;;;;;;4178711;28;20029;-79
2021/01/05 07:15:07;;;;;;;22.80;14.45;;;2.40;99.90;;;;;;4178775;28;20029;-78
2021/01/05 07:17:08;;;;;;;21.45;13.68;;;2.40;99.90;;;;;;4177675;28;20028;-79
2021/01/05 07:19:09;;;;;;;20.77;13.93;;;2.40;99.90;;;;;;4173336;28;20030;-78
2021/01/05 07:21:09;;;;;;;22.48;15.05;;;2.40;99.90;;;;;;4173215;28;20021;-79
2021/01/05 07:23:10;;;;;;;21.27;15.50;;;2.40;99.90;;;;;;4171957;28;20484;-80
2021/01/05 07:25:13;;;;;;;24.40;14.90;;;2.40;99.90;;;;;;4145958;28;20064;-79
2021/01/05 07:27:13;;;;;;;25.63;14.93;;;2.50;99.90;;;;;;4165418;28;20060;-79
2021/01/05 07:29:17;;;;;;;22.45;15.57;;;2.50;99.90;;;;;;4165060;28;20109;-79
2021/01/05 07:31:17;;;;;;;;;;;2.50;99.90;;;;;;4154791;28;20269;-80
2021/01/05 07:33:18;;;;;;;22.55;15.75;;;2.40;99.90;;;;;;4170539;28;19920;-79
2021/01/05 07:35:19;;;;;;;23.00;14.75;;;2.40;99.90;;;;;;4142632;28;20034;-78
2021/01/05 07:37:29;;;;;;;22.25;15.52;;;2.50;99.90;;;;;;4166571;28;20032;-79
2021/01/05 07:39:31;;;;;;;23.23;15.88;;;2.50;99.90;;;;;;4151749;28;20080;-79
2021/01/05 07:41:32;;;;;;;23.80;16.38;;;2.50;99.90;;;;;;4181570;28;20031;-79
2021/01/05 07:43:32;;;;;;;22.67;16.05;;;2.50;99.90;;;;;;4179197;28;20053;-80
2021/01/05 07:45:33;;;;;;;25.30;18.05;;;2.50;99.90;;;;;;4163400;28;20107;-79
2021/01/05 07:47:36;;;;;;;27.10;16.98;;;2.50;99.90;;;;;;4162101;28;20030;-79
2021/01/05 07:49:37;;;;;;;25.63;17.08;;;2.50;99.90;;;;;;4162748;28;20033;-79
2021/01/05 07:51:43;;;;;;;25.75;17.33;;;2.50;99.90;;;;;;4167378;28;20129;-79
2021/01/05 07:53:44;;;;;;;25.45;16.95;;;2.50;99.90;;;;;;4170167;28;20041;-80
2021/01/05 07:55:45;;;;;;;22.70;16.08;;;2.50;99.90;;;;;;4170421;28;20049;-80
2021/01/05 07:57:46;;;;;;;26.58;17.48;;;2.50;99.90;;;;;;4179180;28;20137;-79
2021/01/05 07:59:47;;;;;;;25.35;17.15;;;2.50;99.90;;;;;;4157253;28;20049;-79
2021/01/05 08:01:48;;;;;;;23.73;16.88;;;2.50;99.90;;;;;;4179298;28;20037;-80
2021/01/05 08:03:48;;;;;;;27.88;18.48;;;2.50;99.90;;;;;;4161976;28;20393;-80
2021/01/05 08:05:49;;;;;;;23.15;16.42;;;2.50;99.90;;;;;;4178370;28;20063;-80
2021/01/05 08:07:50;;;;;;;22.15;16.00;;;2.50;99.90;;;;;;4179062;28;20396;-80
2021/01/05 08:09:51;;;;;;;24.58;16.55;;;2.50;99.90;;;;;;4180067;28;20029;-80
2021/01/05 08:11:51;;;;;;;21.27;14.68;;;2.50;99.90;;;;;;4178621;28;20377;-80
2021/01/05 08:13:52;;;;;;;23.48;15.65;;;2.60;99.90;;;;;;4173522;28;20400;-80
2021/01/05 08:15:52;;;;;;;31.13;17.90;;;2.60;99.90;;;;;;4168650;28;20508;-80
2021/01/05 08:17:53;;;;;;;24.75;16.42;;;2.60;99.90;;;;;;4175234;28;20029;-81
2021/01/05 08:19:54;;;;;;;25.13;16.75;;;2.60;99.90;;;;;;4169743;28;20481;-80
2021/01/05 08:21:54;;;;;;;24.35;16.38;;;2.60;99.90;;;;;;4177644;28;20656;-79
2021/01/05 08:23:55;;;;;;;28.05;18.10;;;2.60;99.90;;;;;;4178370;28;20499;-79
2021/01/05 08:25:55;;;;;;;26.52;16.20;;;2.60;99.90;;;;;;4178783;28;20051;-80
2021/01/05 08:27:56;;;;;;;26.00;16.95;;;2.60;99.90;;;;;;4160564;28;20536;-80
2021/01/05 08:29:57;;;;;;;25.70;16.10;;;2.70;99.90;;;;;;4179407;28;20051;-80
2021/01/05 08:31:57;;;;;;;22.80;15.27;;;2.70;99.90;;;;;;4179223;28;20037;-80
2021/01/05 08:33:58;;;;;;;23.20;17.75;;;2.70;99.90;;;;;;4179198;28;20383;-80
2021/01/05 08:35:59;;;;;;;21.80;15.85;;;2.70;99.90;;;;;;4160181;28;20033;-80
2021/01/05 08:37:59;;;;;;;20.00;14.18;;;2.70;99.90;;;;;;4178959;28;20208;-80
2021/01/05 08:40:00;;;;;;;21.58;14.20;;;2.70;99.90;;;;;;4161547;28;20034;-79
2021/01/05 08:42:01;;;;;;;18.15;14.40;;;2.80;99.90;;;;;;4160174;28;20030;-79
2021/01/05 08:44:01;;;;;;;20.98;14.80;;;2.80;99.90;;;;;;4178608;28;20392;-78
2021/01/05 08:46:02;;;;;;;17.98;13.85;;;2.80;99.90;;;;;;4179396;28;20543;-79
2021/01/05 08:48:03;;;;;;;22.30;15.80;;;2.90;99.90;;;;;;4160662;28;20030;-80
2021/01/05 08:50:06;;;;;;;20.23;15.00;;;2.90;99.90;;;;;;4178623;28;20021;-80
2021/01/05 08:52:06;;;;;;;19.05;14.05;;;3.00;99.90;;;;;;4151560;28;20037;-79
2021/01/05 08:54:07;;;;;;;19.98;13.98;;;2.90;99.90;;;;;;4144076;28;20505;-78
2021/01/05 08:56:26;;;;;;;19.75;14.57;;;3.00;99.90;;;;;;4146068;28;20026;-79
2021/01/05 08:58:28;;;;;;;20.55;14.32;;;3.00;99.90;;;;;;4146084;28;20033;-79
2021/01/05 09:00:32;;;;;;;20.98;14.60;;;3.00;99.90;;;;;;4144884;28;20672;-79
2021/01/05 09:02:33;;;;;;;18.83;13.07;;;3.10;99.90;;;;;;4138750;28;20050;-79
2021/01/05 09:04:35;;;;;;;20.83;15.32;;;3.10;99.90;;;;;;4140999;28;20139;-79
2021/01/05 09:06:35;;;;;;;22.55;16.20;;;3.00;99.90;;;;;;4143344;28;20097;-80
2021/01/05 09:08:37;;;;;;;19.52;14.98;;;3.10;99.90;;;;;;4143793;28;20034;-79
2021/01/05 09:10:38;;;;;;;22.10;15.27;;;3.00;99.90;;;;;;4141656;28;20041;-78
2021/01/05 09:12:38;;;;;;;25.27;17.10;;;3.00;99.90;;;;;;4140108;28;20497;-78
2021/01/05 09:14:39;;;;;;;20.15;14.45;;;3.00;99.90;;;;;;4134660;28;20375;-79
2021/01/05 09:16:39;;;;;;;23.27;15.15;;;3.00;99.90;;;;;;4139032;28;20068;-78
2021/01/05 09:18:40;;;;;;;29.25;19.77;;;3.00;99.90;;;;;;4143354;28;20041;-81
2021/01/05 09:20:41;;;;;;;30.90;19.70;;;3.10;99.90;;;;;;4134937;28;20038;-80
2021/01/05 09:22:41;;;;;;;23.30;15.55;;;3.10;99.90;;;;;;4143128;28;20060;-80
2021/01/05 09:24:42;;;;;;;21.85;14.82;;;3.10;99.90;;;;;;4141094;28;20061;-79
2021/01/05 09:26:43;;;;;;;23.45;15.30;;;3.10;99.90;;;;;;4133457;28;20027;-79
2021/01/05 09:28:43;;;;;;;21.88;15.43;;;3.10;99.90;;;;;;4142405;28;20029;-80
2021/01/05 09:30:51;;;;;;;22.95;15.38;;;3.10;99.90;;;;;;4145080;28;20021;-79
2021/01/05 09:32:51;;;;;;;22.85;15.93;;;3.10;99.90;;;;;;4144494;28;20057;-79
2021/01/05 09:34:52;;;;;;;58.40;31.45;;;3.10;99.90;;;;;;4146112;28;20092;-80
2021/01/05 09:36:53;;;;;;;21.35;15.27;;;3.10;99.90;;;;;;4143557;28;20034;-80
2021/01/05 09:38:53;;;;;;;20.23;15.80;;;3.10;99.90;;;;;;4144606;28;20626;-79
2021/01/05 09:40:54;;;;;;;22.02;16.92;;;3.10;99.90;;;;;;4145097;28;20156;-80
2021/01/05 09:42:55;;;;;;;21.33;17.85;;;3.20;99.90;;;;;;4142919;28;20662;-79
2021/01/05 09:44:55;;;;;;;23.58;15.77;;;3.20;99.90;;;;;;4143529;28;20030;-80
2021/01/05 09:46:59;;;;;;;19.98;16.10;;;3.10;99.90;;;;;;4139541;28;20041;-80
2021/01/05 09:49:00;;;;;;;;;;;3.10;99.90;;;;;;4145989;28;20484;-78
2021/01/05 09:51:00;;;;;;;22.95;15.10;;;3.20;99.90;;;;;;4146008;28;20055;-77
2021/01/05 09:53:02;;;;;;;22.38;14.90;;;3.20;99.90;;;;;;4154718;28;20083;-76
2021/01/05 09:55:05;;;;;;;20.65;15.27;;;3.30;99.90;;;;;;4176708;28;20055;-78
2021/01/05 09:57:05;;;;;;;22.98;16.20;;;3.30;99.90;;;;;;4177059;28;20033;-78
2021/01/05 09:59:08;;;;;;;23.35;16.50;;;3.30;99.90;;;;;;4157860;28;20032;-78
2021/01/05 10:01:10;;;;;;;21.40;15.68;;;3.40;99.90;;;;;;4157719;28;20068;-80
2021/01/05 10:03:11;;;;;;;22.92;17.33;;;3.40;99.90;;;;;;4175569;28;20029;-78
2021/01/05 10:05:12;;;;;;;22.48;15.38;;;3.40;99.90;;;;;;4173766;28;20026;-79
2021/01/05 10:07:13;;;;;;;24.80;16.90;;;3.40;99.90;;;;;;4155069;28;20034;-79
2021/01/05 10:09:13;;;;;;;25.85;17.38;;;3.50;99.90;;;;;;4177832;28;20378;-79
2021/01/05 10:11:14;;;;;;;23.38;16.92;;;3.50;99.90;;;;;;4151373;28;20385;-79
2021/01/05 10:13:16;;;;;;;23.52;17.13;;;3.50;99.90;;;;;;4154899;28;20033;-79
2021/01/05 10:15:19;;;;;;;28.05;15.82;;;3.50;99.90;;;;;;4176450;28;20044;-79
2021/01/05 10:17:20;;;;;;;21.98;15.82;;;3.60;99.90;;;;;;4173072;28;20055;-79
2021/01/05 10:19:22;;;;;;;25.20;15.38;;;3.60;99.90;;;;;;4177702;28;20381;-80
2021/01/05 10:21:31;;;;;;;21.70;16.73;;;3.60;99.90;;;;;;4159876;28;20056;-79
2021/01/05 10:23:32;;;;;;;23.33;15.82;;;3.50;99.90;;;;;;4159656;28;20087;-79
2021/01/05 10:25:33;;;;;;;20.42;15.45;;;3.50;99.90;;;;;;4160189;28;20532;-79
2021/01/05 10:27:33;;;;;;;21.08;15.38;;;3.50;99.90;;;;;;4176130;28;20044;-79
2021/01/05 10:29:34;;;;;;;18.35;14.70;;;3.50;99.90;;;;;;4155137;28;20034;-79
2021/01/05 10:31:40;;;;;;;21.02;15.55;;;3.50;99.90;;;;;;4169592;28;20048;-79
2021/01/05 10:33:40;;;;;;;20.95;16.08;;;3.50;99.90;;;;;;4148895;28;20428;-80
2021/01/05 10:35:41;;;;;;;20.58;14.60;;;3.50;99.90;;;;;;4174430;28;20057;-80
2021/01/05 10:37:44;;;;;;;21.83;15.43;;;3.50;99.90;;;;;;4162885;28;20029;-79
2021/01/05 10:39:45;;;;;;;20.92;13.77;;;3.50;99.90;;;;;;4159081;28;20038;-79
2021/01/05 10:41:46;;;;;;;21.23;15.95;;;3.50;99.90;;;;;;4177966;28;20036;-80
2021/01/05 10:43:47;;;;;;;22.42;16.20;;;3.40;99.90;;;;;;4178101;28;20828;-79
2021/01/05 10:45:48;;;;;;;22.02;15.98;;;3.40;99.90;;;;;;4178092;28;20044;-79
2021/01/05 10:47:49;;;;;;;19.75;14.68;;;3.40;99.90;;;;;;4159890;28;20361;-78